createdAt,value
2022-11-01T00:01:49.719Z,46.05
2022-11-01T00:04:17.705Z,42.00
2022-11-01T00:06:45.147Z,48.17
2022-11-01T00:09:12.638Z,41.97
2022-11-01T00:11:40.337Z,48.63
2022-11-01T00:14:07.941Z,41.95
2022-11-01T00:16:35.321Z,42.38
2022-11-01T00:19:02.550Z,46.53
2022-11-01T00:21:30.161Z,46.30
2022-11-01T00:23:57.373Z,45.60
2022-11-01T00:26:25.432Z,51.22
2022-11-01T00:28:53.287Z,47.88
2022-11-01T00:31:21.515Z,48.92
2022-11-01T00:33:48.780Z,39.80
2022-11-01T00:36:16.400Z,46.97
2022-11-01T00:38:43.545Z,42.10
2022-11-01T00:41:11.139Z,44.28
2022-11-01T00:43:38.315Z,42.72
2022-11-01T00:46:06.040Z,50.53
2022-11-01T00:48:33.282Z,48.50
2022-11-01T00:51:00.707Z,48.72
2022-11-01T00:53:27.888Z,68.63
2022-11-01T00:56:01.431Z,49.55
2022-11-01T00:58:28.991Z,45.42
2022-11-01T01:00:56.586Z,47.13
2022-11-01T01:03:24.404Z,48.70
2022-11-01T01:05:53.133Z,44.33
2022-11-01T01:08:21.029Z,47.00
2022-11-01T01:10:49.115Z,41.13
2022-11-01T01:13:16.813Z,45.15
2022-11-01T01:15:45.235Z,46.85
2022-11-01T01:18:12.639Z,49.92
2022-11-01T01:20:40.050Z,47.10
2022-11-01T01:23:07.264Z,49.08
2022-11-01T01:25:34.750Z,49.13
2022-11-01T01:28:02.861Z,48.80
2022-11-01T01:30:30.364Z,57.72
2022-11-01T01:32:57.567Z,47.25
2022-11-01T01:35:25.036Z,55.70
2022-11-01T01:37:52.169Z,50.13
2022-11-01T01:40:19.610Z,52.90
2022-11-01T01:42:47.492Z,54.72
2022-11-01T01:45:33.483Z,53.13
2022-11-01T01:48:21.606Z,49.78
2022-11-01T01:50:59.394Z,50.90
2022-11-01T01:53:32.991Z,53.58
2022-11-01T01:56:04.586Z,45.88
2022-11-01T01:58:42.318Z,48.10
2022-11-01T02:01:09.841Z,49.22
2022-11-01T02:03:38.569Z,51.60
2022-11-01T02:06:13.204Z,53.58
2022-11-01T02:08:43.318Z,47.22
2022-11-01T02:11:11.994Z,48.83
2022-11-01T02:13:39.423Z,49.63
2022-11-01T02:16:34.655Z,53.92
2022-11-01T02:19:16.608Z,45.03
2022-11-01T02:21:52.953Z,50.45
2022-11-01T02:24:59.909Z,48.45
2022-11-01T02:27:40.452Z,47.08
2022-11-01T02:30:21.187Z,49.22
2022-11-01T02:32:51.587Z,49.75
2022-11-01T02:35:55.527Z,52.80
2022-11-01T02:38:58.106Z,48.17
2022-11-01T02:41:31.854Z,47.25
2022-11-01T02:44:10.035Z,54.17
2022-11-01T02:46:58.983Z,49.05
2022-11-01T02:49:34.070Z,49.67
2022-11-01T02:52:02.363Z,59.03
2022-11-01T02:54:38.422Z,53.20
2022-11-01T02:57:17.585Z,47.10
2022-11-01T02:59:47.271Z,54.15
2022-11-01T03:02:22.441Z,47.97
2022-11-01T03:04:49.860Z,48.15
2022-11-01T03:07:17.454Z,50.78
2022-11-01T03:09:45.705Z,43.38
2022-11-01T03:15:01.074Z,43.58
2022-11-01T03:17:33.291Z,52.78
2022-11-01T03:20:26.642Z,46.97
2022-11-01T03:23:00.915Z,50.47
2022-11-01T03:25:40.714Z,45.33
2022-11-01T03:28:15.228Z,45.22
2022-11-01T03:30:48.267Z,48.70
2022-11-01T03:33:16.973Z,46.42
2022-11-01T03:35:47.773Z,47.58
2022-11-01T03:38:19.069Z,47.60
2022-11-01T03:40:52.589Z,49.65
2022-11-01T03:43:24.023Z,52.78
2022-11-01T03:45:51.903Z,48.47
2022-11-01T03:48:19.124Z,51.08
2022-11-01T03:50:51.263Z,49.03
2022-11-01T03:53:18.996Z,45.22
2022-11-01T03:55:46.371Z,47.08
2022-11-01T03:58:13.871Z,45.60
2022-11-01T04:00:44.254Z,51.35
2022-11-01T04:03:12.832Z,44.97
2022-11-01T04:05:41.658Z,45.38
2022-11-01T04:08:11.346Z,42.70
2022-11-01T04:10:38.971Z,46.40
2022-11-01T04:13:06.233Z,43.92
2022-11-01T04:15:52.279Z,47.83
2022-11-01T04:21:24.978Z,46.03
2022-11-01T04:23:52.527Z,45.25
2022-11-01T04:26:22.118Z,45.67
2022-11-01T04:28:59.090Z,50.92
2022-11-01T04:31:35.202Z,44.15
2022-11-01T04:34:04.343Z,44.78
2022-11-01T04:36:32.182Z,45.33
2022-11-01T04:38:59.579Z,48.40
2022-11-01T04:41:28.803Z,42.55
2022-11-01T04:43:58.717Z,49.88
2022-11-01T04:46:29.163Z,51.20
2022-11-01T04:48:56.618Z,45.28
2022-11-01T04:51:24.195Z,53.13
2022-11-01T04:53:51.453Z,49.50
2022-11-01T04:56:19.094Z,45.28
2022-11-01T04:58:46.811Z,47.10
2022-11-01T05:01:15.134Z,51.42
2022-11-01T05:03:43.182Z,45.58
2022-11-01T05:06:10.919Z,49.88
2022-11-01T05:08:38.207Z,53.55
2022-11-01T05:11:05.745Z,45.10
2022-11-01T05:13:33.295Z,47.35
2022-11-01T05:16:21.097Z,52.50
2022-11-01T05:18:49.179Z,47.60
2022-11-01T05:21:16.576Z,45.08
2022-11-01T05:23:43.766Z,47.95
2022-11-01T05:26:11.183Z,44.38
2022-11-01T05:28:38.493Z,44.83
2022-11-01T05:31:05.900Z,44.45
2022-11-01T05:33:33.155Z,48.03
2022-11-01T05:36:01.971Z,45.65
2022-11-01T05:38:29.254Z,41.45
2022-11-01T05:40:56.638Z,50.40
2022-11-01T05:43:23.877Z,42.67
2022-11-01T05:45:51.412Z,53.03
2022-11-01T05:48:18.585Z,46.80
2022-11-01T05:50:47.102Z,45.22
2022-11-01T05:53:14.768Z,44.75
2022-11-01T05:55:42.278Z,50.08
2022-11-01T05:58:09.629Z,48.00
2022-11-01T06:00:37.117Z,43.22
2022-11-01T06:03:05.134Z,43.95
2022-11-01T06:05:33.190Z,44.28
2022-11-01T06:08:04.291Z,45.10
2022-11-01T06:10:33.493Z,41.42
2022-11-01T06:13:00.930Z,46.00
2022-11-01T06:15:28.867Z,45.83
2022-11-01T06:18:00.086Z,49.55
2022-11-01T06:20:29.771Z,40.50
2022-11-01T06:22:57.865Z,39.10
2022-11-01T06:25:27.091Z,46.15
2022-11-01T06:27:57.428Z,45.38
2022-11-01T06:30:25.089Z,39.70
2022-11-01T06:32:52.298Z,43.83
2022-11-01T06:35:19.762Z,43.58
2022-11-01T06:37:47.432Z,43.22
2022-11-01T06:40:14.949Z,46.33
2022-11-01T06:42:46.401Z,43.33
2022-11-01T06:45:14.741Z,42.53
2022-11-01T06:47:46.854Z,41.97
2022-11-01T06:50:14.293Z,41.35
2022-11-01T06:52:41.455Z,45.05
2022-11-01T06:55:10.293Z,43.72
2022-11-01T06:57:37.789Z,50.92
2022-11-01T07:00:05.933Z,46.05
2022-11-01T07:02:33.213Z,49.17
2022-11-01T07:05:00.833Z,40.83
2022-11-01T07:07:28.006Z,45.40
2022-11-01T07:09:55.460Z,43.45
2022-11-01T07:12:22.704Z,46.33
2022-11-01T07:14:50.400Z,42.17
2022-11-01T07:17:17.610Z,41.78
2022-11-01T07:19:45.622Z,46.50
2022-11-01T07:22:12.837Z,41.40
2022-11-01T07:24:40.638Z,43.65
2022-11-01T07:27:07.940Z,39.05
2022-11-01T07:29:35.606Z,42.92
2022-11-01T07:32:02.939Z,40.55
2022-11-01T07:34:30.321Z,44.72
2022-11-01T07:36:57.504Z,40.70
2022-11-01T07:39:25.330Z,44.50
2022-11-01T07:41:54.267Z,46.78
2022-11-01T07:44:22.130Z,40.72
2022-11-01T07:46:49.337Z,34.85
2022-11-01T07:49:16.791Z,40.90
2022-11-01T07:51:44.065Z,39.50
2022-11-01T07:54:11.705Z,43.17
2022-11-01T07:56:38.863Z,38.45
2022-11-01T07:59:06.286Z,37.00
2022-11-01T08:01:33.572Z,41.53
2022-11-01T08:04:01.053Z,38.50
2022-11-01T08:06:28.230Z,41.05
2022-11-01T08:08:55.648Z,44.75
2022-11-01T08:11:23.035Z,38.22
2022-11-01T08:13:50.501Z,40.45
2022-11-01T08:16:18.285Z,44.70
2022-11-01T08:18:46.203Z,44.60
2022-11-01T08:21:18.742Z,43.22
2022-11-01T08:23:46.932Z,42.22
2022-11-01T08:26:14.817Z,41.95
2022-11-01T08:28:42.997Z,44.45
2022-11-01T08:31:10.820Z,35.50
2022-11-01T08:33:40.774Z,42.05
2022-11-01T08:36:08.053Z,38.08
2022-11-01T08:38:35.459Z,32.72
2022-11-01T08:41:02.673Z,39.17
2022-11-01T08:43:30.042Z,35.85
2022-11-01T08:45:59.863Z,35.70
2022-11-01T08:48:27.239Z,30.65
2022-11-01T08:50:54.485Z,33.10
2022-11-01T08:53:22.020Z,33.95
2022-11-01T08:55:55.247Z,35.20
2022-11-01T08:58:23.873Z,35.75
2022-11-01T09:00:51.306Z,36.17
2022-11-01T09:03:18.796Z,41.95
2022-11-01T09:05:46.036Z,31.65
2022-11-01T09:08:13.359Z,32.53
2022-11-01T09:10:40.706Z,30.90
2022-11-01T09:13:08.285Z,30.42
2022-11-01T09:15:35.726Z,28.88
2022-11-01T09:18:07.532Z,23.98
2022-11-01T09:20:34.898Z,27.08
2022-11-01T09:23:02.803Z,22.80
2022-11-01T09:25:30.555Z,22.17
2022-11-01T09:27:58.444Z,19.95
2022-11-01T09:30:26.702Z,22.73
2022-11-01T09:32:54.350Z,24.27
2022-11-01T09:35:21.637Z,33.22
2022-11-01T09:37:49.083Z,24.95
2022-11-01T09:40:16.589Z,25.77
2022-11-01T09:42:45.439Z,27.90
2022-11-01T09:45:22.558Z,24.65
2022-11-01T09:47:54.802Z,24.38
2022-11-01T09:50:34.368Z,30.33
2022-11-01T09:53:07.487Z,26.70
2022-11-01T09:55:41.673Z,23.90
2022-11-01T09:58:39.263Z,24.67
2022-11-01T10:01:20.173Z,22.80
2022-11-01T10:03:55.841Z,21.20
2022-11-01T10:06:28.075Z,22.13
2022-11-01T10:09:22.948Z,22.92
2022-11-01T10:12:17.185Z,23.08
2022-11-01T10:14:44.618Z,20.55
2022-11-01T10:17:50.862Z,24.60
2022-11-01T10:20:33.788Z,23.00
2022-11-01T10:23:04.083Z,25.33
2022-11-01T10:25:39.108Z,26.70
2022-11-01T10:28:37.145Z,27.65
2022-11-01T10:31:11.876Z,26.58
2022-11-01T10:33:51.674Z,30.27
2022-11-01T10:36:25.826Z,27.42
2022-11-01T10:39:52.563Z,28.55
2022-11-01T10:41:52.815Z,28.05
2022-11-01T10:44:33.665Z,28.85
2022-11-01T10:47:05.059Z,31.15
2022-11-01T10:52:35.652Z,28.17
2022-11-01T10:55:03.862Z,26.85
2022-11-01T10:57:46.502Z,29.13
2022-11-01T11:00:19.728Z,27.95
2022-11-01T11:02:57.357Z,30.25
2022-11-01T11:05:29.110Z,32.13
2022-11-01T11:08:03.651Z,27.92
2022-11-01T11:10:31.400Z,33.38
2022-11-01T11:13:06.937Z,32.03
2022-11-01T11:15:52.758Z,30.92
2022-11-01T11:18:24.448Z,31.08
2022-11-01T11:21:00.269Z,29.17
2022-11-01T11:23:36.293Z,35.45
2022-11-01T11:26:09.731Z,31.73
2022-11-01T11:28:44.250Z,32.30
2022-11-01T11:31:32.702Z,35.00
2022-11-01T11:34:26.445Z,34.15
2022-11-01T11:36:55.149Z,29.23
2022-11-01T11:39:28.338Z,31.88
2022-11-01T11:42:09.732Z,33.05
2022-11-01T11:44:51.958Z,31.92
2022-11-01T11:47:25.402Z,29.23
2022-11-01T11:49:58.330Z,29.08
2022-11-01T11:52:38.422Z,30.38
2022-11-01T11:55:26.233Z,33.42
2022-11-01T11:57:55.449Z,30.27
2022-11-01T12:00:26.968Z,30.70
2022-11-01T12:02:54.392Z,31.75
2022-11-01T12:05:23.883Z,37.22
2022-11-01T12:07:57.070Z,36.15
2022-11-01T12:10:27.519Z,31.60
2022-11-01T12:12:56.876Z,34.70
2022-11-01T12:15:37.034Z,30.10
2022-11-01T12:18:17.083Z,33.05
2022-11-01T12:20:50.634Z,35.58
2022-11-01T12:23:30.971Z,30.27
2022-11-01T12:26:00.762Z,36.88
2022-11-01T12:28:37.808Z,33.08
2022-11-01T12:31:14.099Z,35.67
2022-11-01T12:33:48.678Z,29.90
2022-11-01T12:36:20.475Z,25.15
2022-11-01T12:38:54.635Z,31.85
2022-11-01T12:41:27.621Z,27.27
2022-11-01T12:44:16.422Z,27.88
2022-11-01T12:46:53.316Z,26.83
2022-11-01T12:49:35.035Z,27.55
2022-11-01T12:52:11.302Z,32.17
2022-11-01T12:54:48.250Z,30.63
2022-11-01T12:59:46.496Z,36.60
2022-11-01T13:02:13.823Z,29.70
2022-11-01T13:04:51.147Z,27.70
2022-11-01T13:07:21.527Z,28.17
2022-11-01T13:10:29.111Z,30.50
2022-11-01T13:13:27.817Z,35.22
2022-11-01T13:16:01.623Z,31.60
2022-11-01T13:18:46.341Z,30.15
2022-11-01T13:21:45.848Z,30.08
2022-11-01T13:24:24.925Z,34.15
2022-11-01T13:27:04.777Z,34.20
2022-11-01T13:29:56.995Z,34.55
2022-11-01T13:32:38.295Z,30.45
2022-11-01T13:35:43.310Z,29.90
2022-11-01T13:38:10.724Z,33.88
2022-11-01T13:40:43.226Z,33.78
2022-11-01T13:43:13.663Z,32.70
2022-11-01T13:45:53.044Z,36.17
2022-11-01T13:48:43.607Z,29.40
2022-11-01T13:51:34.327Z,29.15
2022-11-01T13:54:14.181Z,31.55
2022-11-01T13:56:48.568Z,32.47
2022-11-01T13:59:32.215Z,31.17
2022-11-01T14:02:31.845Z,34.05
2022-11-01T14:05:10.772Z,32.00
2022-11-01T14:07:39.528Z,33.35
2022-11-01T14:10:17.371Z,29.55
2022-11-01T14:12:48.227Z,35.05
2022-11-01T14:15:21.440Z,31.52
2022-11-01T14:17:55.837Z,33.60
2022-11-01T14:20:26.369Z,30.98
2022-11-01T14:22:55.436Z,33.17
2022-11-01T14:25:33.038Z,26.92
2022-11-01T14:28:23.516Z,28.10
2022-11-01T14:30:53.553Z,30.63
2022-11-01T14:33:22.670Z,25.52
2022-11-01T14:35:57.845Z,28.23
2022-11-01T14:38:32.648Z,28.65
2022-11-01T14:41:01.164Z,25.45
2022-11-01T14:43:47.803Z,36.30
2022-11-01T14:46:23.534Z,36.55
2022-11-01T14:49:14.243Z,44.58
2022-11-01T14:52:05.176Z,39.13
2022-11-01T14:54:46.289Z,32.50
2022-11-01T14:57:28.574Z,28.92
2022-11-01T14:59:56.946Z,24.55
2022-11-01T15:02:27.195Z,29.50
2022-11-01T15:05:00.316Z,26.33
2022-11-01T15:07:31.361Z,27.38
2022-11-01T15:10:19.537Z,28.13
2022-11-01T15:12:54.955Z,33.17
2022-11-01T15:15:32.363Z,34.53
2022-11-01T15:18:20.472Z,31.20
2022-11-01T15:20:50.546Z,29.58
2022-11-01T15:23:35.466Z,26.58
2022-11-01T15:26:08.919Z,30.25
2022-11-01T15:28:41.587Z,29.15
2022-11-01T15:31:10.168Z,27.75
2022-11-01T15:33:38.245Z,29.48
2022-11-01T15:36:23.313Z,29.77
2022-11-01T15:38:54.339Z,29.30
2022-11-01T15:41:31.879Z,31.77
2022-11-01T15:44:05.801Z,32.53
2022-11-01T15:46:43.325Z,32.38
2022-11-01T15:49:19.550Z,33.15
2022-11-01T15:52:16.591Z,32.58
2022-11-01T15:54:47.055Z,34.88
2022-11-01T15:57:21.155Z,30.88
2022-11-01T16:00:01.318Z,31.85
2022-11-01T16:02:45.839Z,30.70
2022-11-01T16:05:18.680Z,27.90
2022-11-01T16:07:46.406Z,29.88
2022-11-01T16:10:29.838Z,32.72
2022-11-01T16:12:58.941Z,32.50
2022-11-01T16:15:28.156Z,30.17
2022-11-01T16:18:00.202Z,29.95
2022-11-01T16:20:41.039Z,37.30
2022-11-01T16:23:12.444Z,33.28
2022-11-01T16:25:40.358Z,36.38
2022-11-01T16:28:10.361Z,40.15
2022-11-01T16:30:45.380Z,40.78
2022-11-01T16:33:44.559Z,39.42
2022-11-01T16:36:21.283Z,41.65
2022-11-01T16:38:52.909Z,40.55
2022-11-01T16:41:37.806Z,40.97
2022-11-01T16:44:16.283Z,40.90
2022-11-01T16:46:46.570Z,47.60
2022-11-01T16:49:21.250Z,45.70
2022-11-01T16:51:49.386Z,46.72
2022-11-01T16:54:16.513Z,48.25
2022-11-01T16:56:50.001Z,50.75
2022-11-01T16:59:25.401Z,46.33
2022-11-01T17:01:55.738Z,52.75
2022-11-01T17:04:23.233Z,41.28
2022-11-01T17:06:51.914Z,50.05
2022-11-01T17:09:21.298Z,44.20
2022-11-01T17:11:51.729Z,38.85
2022-11-01T17:14:20.860Z,42.97
2022-11-01T17:16:51.424Z,44.58
2022-11-01T17:19:26.390Z,34.95
2022-11-01T17:21:55.007Z,34.78
2022-11-01T17:24:24.700Z,39.13
2022-11-01T17:26:54.247Z,40.40
2022-11-01T17:29:22.012Z,40.15
2022-11-01T17:31:49.845Z,40.45
2022-11-01T17:34:17.385Z,41.90
2022-11-01T17:36:48.061Z,51.05
2022-11-01T17:39:15.639Z,36.50
2022-11-01T17:41:43.354Z,35.95
2022-11-01T17:44:13.639Z,37.95
2022-11-01T17:46:41.188Z,37.22
2022-11-01T17:49:12.330Z,36.42
2022-11-01T17:51:39.796Z,42.17
2022-11-01T17:54:07.546Z,38.05
2022-11-01T17:56:35.039Z,39.15
2022-11-01T17:59:02.565Z,35.92
2022-11-01T18:01:30.577Z,41.63
2022-11-01T18:03:57.935Z,43.72
2022-11-01T18:06:26.525Z,47.45
2022-11-01T18:08:54.184Z,47.47
2022-11-01T18:11:27.780Z,45.42
2022-11-01T18:14:03.953Z,57.90
2022-11-01T18:17:05.474Z,50.83
2022-11-01T18:19:45.857Z,53.08
2022-11-01T18:22:13.377Z,59.78
2022-11-01T18:24:43.822Z,49.42
2022-11-01T18:27:12.917Z,56.28
2022-11-01T18:29:45.475Z,50.22
2022-11-01T18:32:23.921Z,52.75
2022-11-01T18:35:03.259Z,43.88
2022-11-01T18:37:49.848Z,43.65
2022-11-01T18:40:39.530Z,41.65
2022-11-01T18:43:10.046Z,36.42
2022-11-01T18:45:57.754Z,35.65
2022-11-01T18:48:27.617Z,38.47
2022-11-01T18:51:05.887Z,42.30
2022-11-01T18:53:34.284Z,39.95
2022-11-01T18:56:27.932Z,44.83
2022-11-01T18:59:00.419Z,42.05
2022-11-01T19:01:31.999Z,34.35
2022-11-01T19:04:26.451Z,38.05
2022-11-01T19:07:14.070Z,39.55
2022-11-01T19:09:45.956Z,41.45
2022-11-01T19:12:25.373Z,48.30
2022-11-01T19:15:19.039Z,67.68
2022-11-01T19:17:48.585Z,57.28
2022-11-01T19:20:34.494Z,43.28
2022-11-01T19:23:03.949Z,42.42
2022-11-01T19:25:33.485Z,45.60
2022-11-01T19:28:12.755Z,49.97
2022-11-01T19:30:40.210Z,53.75
2022-11-01T19:33:30.584Z,53.60
2022-11-01T19:36:03.951Z,44.83
2022-11-01T19:38:31.514Z,44.90
2022-11-01T19:40:59.105Z,53.15
2022-11-01T19:43:28.188Z,42.90
2022-11-01T19:45:57.818Z,39.05
2022-11-01T19:48:30.726Z,62.28
2022-11-01T19:50:58.101Z,54.13
2022-11-01T19:53:37.926Z,45.67
2022-11-01T19:56:06.287Z,59.17
2022-11-01T19:58:53.968Z,41.47
2022-11-01T20:01:30.698Z,49.88
2022-11-01T20:04:12.490Z,39.15
2022-11-01T20:06:48.606Z,44.00
2022-11-01T20:09:23.943Z,47.13
2022-11-01T20:11:51.575Z,45.53
2022-11-01T20:14:19.241Z,47.80
2022-11-01T20:16:46.813Z,53.00
2022-11-01T20:19:17.543Z,53.85
2022-11-01T20:21:45.489Z,53.47
2022-11-01T20:24:13.460Z,63.42
2022-11-01T20:26:40.685Z,56.08
2022-11-01T20:29:08.557Z,59.55
2022-11-01T20:31:35.928Z,49.88
2022-11-01T20:34:04.061Z,52.15
2022-11-01T20:36:31.579Z,50.20
2022-11-01T20:38:58.980Z,49.88
2022-11-01T20:41:27.073Z,52.60
2022-11-01T20:43:54.542Z,45.55
2022-11-01T20:46:21.701Z,64.75
2022-11-01T20:48:49.154Z,50.38
2022-11-01T20:51:16.507Z,40.63
2022-11-01T20:53:43.884Z,43.72
2022-11-01T20:56:12.186Z,47.50
2022-11-01T20:58:42.458Z,46.50
2022-11-01T21:01:17.242Z,42.83
2022-11-01T21:03:45.723Z,46.00
2022-11-01T21:06:17.585Z,40.65
2022-11-01T21:08:49.508Z,43.08
2022-11-01T21:11:19.491Z,43.42
2022-11-01T21:13:47.177Z,44.38
2022-11-01T21:16:30.527Z,54.65
2022-11-01T21:19:04.411Z,43.00
2022-11-01T21:21:45.227Z,43.60
2022-11-01T21:24:26.902Z,42.13
2022-11-01T21:27:12.520Z,43.42
2022-11-01T21:29:46.059Z,40.47
2022-11-01T21:32:29.924Z,41.17
2022-11-01T21:34:58.580Z,46.47
2022-11-01T21:37:29.134Z,42.53
2022-11-01T21:40:05.725Z,43.10
2022-11-01T21:42:36.475Z,43.53
2022-11-01T21:45:22.116Z,49.53
2022-11-01T21:47:51.506Z,46.95
2022-11-01T21:50:19.054Z,52.38
2022-11-01T21:52:47.291Z,46.75
2022-11-01T21:55:15.114Z,52.35
2022-11-01T21:57:42.330Z,55.60
2022-11-01T22:00:10.982Z,53.65
2022-11-01T22:02:38.240Z,47.63
2022-11-01T22:05:06.055Z,51.05
2022-11-01T22:07:33.340Z,57.83
2022-11-01T22:10:00.725Z,55.35
2022-11-01T22:12:28.000Z,49.58
2022-11-01T22:14:55.500Z,53.42
2022-11-01T22:17:22.697Z,54.40
2022-11-01T22:19:50.293Z,61.47
2022-11-01T22:22:17.492Z,50.70
2022-11-01T22:24:44.903Z,52.50
2022-11-01T22:27:12.057Z,52.75
2022-11-01T22:29:39.399Z,56.30
2022-11-01T22:32:06.684Z,48.92
2022-11-01T22:34:34.279Z,56.67
2022-11-01T22:37:01.660Z,49.63
2022-11-01T22:39:30.313Z,50.00
2022-11-01T22:41:57.527Z,46.80
2022-11-01T22:44:31.325Z,43.60
2022-11-01T22:47:02.917Z,48.47
2022-11-01T22:49:33.060Z,41.00
2022-11-01T22:52:18.447Z,40.60
2022-11-01T22:54:52.022Z,40.33
2022-11-01T22:57:26.735Z,40.78
2022-11-01T23:00:21.159Z,40.33
2022-11-01T23:02:48.576Z,36.85
2022-11-01T23:05:23.917Z,37.78
2022-11-01T23:07:53.814Z,38.50
2022-11-01T23:10:27.470Z,42.10
2022-11-01T23:13:45.528Z,40.25
2022-11-01T23:16:34.800Z,39.63
2022-11-01T23:19:07.624Z,37.80
2022-11-01T23:21:35.249Z,35.92
2022-11-01T23:24:03.065Z,40.10
2022-11-01T23:26:31.101Z,36.70
2022-11-01T23:28:58.998Z,38.58
2022-11-01T23:31:28.637Z,35.22
2022-11-01T23:33:56.089Z,39.15
2022-11-01T23:36:27.962Z,39.63
2022-11-01T23:39:02.320Z,34.20
2022-11-01T23:41:34.182Z,43.13
2022-11-01T23:44:10.800Z,40.00
2022-11-01T23:49:20.320Z,43.97
2022-11-01T23:51:48.435Z,43.60
2022-11-01T23:54:35.243Z,47.53
2022-11-01T23:57:02.721Z,45.00
2022-11-01T23:59:29.905Z,47.13
